KBYI/BYI METAR and TAF weather

Enter ICAO airport designator
Station Type Date Time Source
KBYI METAR 2024/06/14 01:53 UTC NOAA

KBYI 140153Z AUTO VRB03KT 10SM CLR 29/12 A2987 RMK AO2 SLP070 T02890117


Station Type Date Time Source
KBYI Decoded METAR 2024/06/14 01:53 UTC NOAA

BURLEY MUNICIPAL AIRPORT, ID, United States (KBYI) 42-33N 113-46W 1264M
Jun 13, 2024 - 09:53 PM EDT / 2024.06.14 0153 UTC
Wind: Variable at 3 MPH (3 KT):0
Visibility: 10 mile(s):0
Sky conditions: clear
Temperature: 84.0 F (28.9 C)
Dew Point: 53.1 F (11.7 C)
Relative Humidity: 34%
Pressure (altimeter): 29.87 in. Hg (1011 hPa)
ob: KBYI 140153Z AUTO VRB03KT 10SM CLR 29/12 A2987 RMK AO2 SLP070 T02890117
cycle: 2

Station Type Date Time Source
KBYI TAF 2024/06/13 18:22 UTC NOAA